createdAt,value
2022-12-03T00:01:28.494Z,5.96
2022-12-03T00:03:56.402Z,5.97
2022-12-03T00:06:25.626Z,5.92
2022-12-03T00:08:54.000Z,5.89
2022-12-03T00:11:21.762Z,5.86
2022-12-03T00:13:49.415Z,5.83
2022-12-03T00:16:17.134Z,5.86
2022-12-03T00:18:46.273Z,5.93
2022-12-03T00:21:26.263Z,5.97
2022-12-03T00:23:54.021Z,5.99
2022-12-03T00:26:21.730Z,5.87
2022-12-03T00:28:49.424Z,5.74
2022-12-03T00:31:17.189Z,5.66
2022-12-03T00:33:46.242Z,5.66
2022-12-03T00:36:13.855Z,5.72
2022-12-03T00:38:41.548Z,5.80
2022-12-03T00:41:09.201Z,5.85
2022-12-03T00:43:36.869Z,5.88
2022-12-03T00:46:04.579Z,5.86
2022-12-03T00:48:32.256Z,5.91
2022-12-03T00:51:01.260Z,5.87
2022-12-03T00:53:29.265Z,5.81
2022-12-03T00:55:56.924Z,5.81
2022-12-03T00:58:24.586Z,5.75
2022-12-03T01:00:52.334Z,5.78
2022-12-03T01:03:19.972Z,5.73
2022-12-03T01:05:47.671Z,5.68
2022-12-03T01:08:16.906Z,5.67
2022-12-03T01:10:44.666Z,5.66
2022-12-03T01:13:12.365Z,5.77
2022-12-03T01:15:40.098Z,5.74
2022-12-03T01:18:07.900Z,5.63
2022-12-03T01:20:36.302Z,5.72
2022-12-03T01:23:04.079Z,5.66
2022-12-03T01:25:33.095Z,5.68
2022-12-03T01:28:00.752Z,5.58
2022-12-03T01:30:28.461Z,5.54
2022-12-03T01:32:55.139Z,5.53
2022-12-03T01:35:22.813Z,5.66
2022-12-03T01:37:50.531Z,5.70
2022-12-03T01:40:21.264Z,5.71
2022-12-03T01:42:50.323Z,5.72
2022-12-03T01:45:24.700Z,5.76
2022-12-03T01:47:52.522Z,5.78
2022-12-03T01:50:24.750Z,5.78
2022-12-03T01:52:54.369Z,5.89
2022-12-03T01:55:25.364Z,5.85
2022-12-03T01:57:56.932Z,5.82
2022-12-03T02:00:27.773Z,5.86
2022-12-03T02:02:57.961Z,5.83
2022-12-03T02:05:29.470Z,5.82
2022-12-03T02:07:58.202Z,5.86
2022-12-03T02:10:28.997Z,5.82
2022-12-03T02:13:00.890Z,5.77
2022-12-03T02:15:29.072Z,5.72
2022-12-03T02:17:57.752Z,5.70
2022-12-03T02:20:25.844Z,5.66
2022-12-03T02:23:03.867Z,5.70
2022-12-03T02:25:35.514Z,5.69
2022-12-03T02:28:05.717Z,5.63
2022-12-03T02:30:33.755Z,5.66
2022-12-03T02:33:02.451Z,5.76
2022-12-03T02:35:33.989Z,5.80
2022-12-03T02:38:08.006Z,5.80
2022-12-03T02:40:37.347Z,5.85
2022-12-03T02:43:05.132Z,5.80
2022-12-03T02:45:36.962Z,5.91
2022-12-03T02:48:09.823Z,6.01
2022-12-03T02:50:41.285Z,5.99
2022-12-03T02:53:13.833Z,5.99
2022-12-03T02:55:43.478Z,5.88
2022-12-03T02:58:12.613Z,6.01
2022-12-03T03:00:40.783Z,6.04
2022-12-03T03:03:09.991Z,6.11
2022-12-03T03:05:40.099Z,6.12
2022-12-03T03:08:10.085Z,6.09
2022-12-03T03:10:39.759Z,6.07
2022-12-03T03:13:11.778Z,6.06
2022-12-03T03:15:40.491Z,6.04
2022-12-03T03:18:09.288Z,5.97
2022-12-03T03:20:37.815Z,6.01
2022-12-03T03:23:15.600Z,6.03
2022-12-03T03:25:47.045Z,6.06
2022-12-03T03:28:17.658Z,6.01
2022-12-03T03:30:45.881Z,5.99
2022-12-03T03:33:14.448Z,6.06
2022-12-03T03:35:43.139Z,6.08
2022-12-03T03:38:11.586Z,6.07
2022-12-03T03:40:40.231Z,6.12
2022-12-03T03:43:08.358Z,6.22
2022-12-03T03:45:37.468Z,6.26
2022-12-03T03:48:05.387Z,6.24
2022-12-03T03:50:33.729Z,6.13
2022-12-03T03:53:03.592Z,6.07
2022-12-03T03:55:31.731Z,6.08
2022-12-03T03:57:59.632Z,6.09
2022-12-03T04:00:27.518Z,5.99
2022-12-03T04:02:56.618Z,6.11
2022-12-03T04:05:25.660Z,6.06
2022-12-03T04:07:53.355Z,6.07
2022-12-03T04:10:38.959Z,6.04
2022-12-03T04:13:07.343Z,5.89
2022-12-03T04:15:35.011Z,6.01
2022-12-03T04:18:21.710Z,6.06
2022-12-03T04:20:49.474Z,6.11
2022-12-03T04:23:16.415Z,6.05
2022-12-03T04:26:01.728Z,6.07
2022-12-03T04:28:47.087Z,6.03
2022-12-03T04:31:32.540Z,6.05
2022-12-03T04:34:18.369Z,6.13
2022-12-03T04:36:46.123Z,6.02
2022-12-03T04:39:13.851Z,5.95
2022-12-03T04:41:41.656Z,5.98
2022-12-03T04:44:26.708Z,5.99
2022-12-03T04:46:54.425Z,6.03
2022-12-03T04:49:23.554Z,5.92
2022-12-03T04:51:51.284Z,6.00
2022-12-03T04:54:19.013Z,6.07
2022-12-03T04:56:46.681Z,6.12
2022-12-03T04:59:16.448Z,6.10
2022-12-03T05:01:44.765Z,6.04
2022-12-03T05:04:12.638Z,6.12
2022-12-03T05:06:42.237Z,6.11
2022-12-03T05:09:10.231Z,6.14
2022-12-03T05:11:37.944Z,6.08
2022-12-03T05:14:06.472Z,6.10
2022-12-03T05:16:34.349Z,6.17
2022-12-03T05:19:02.466Z,6.18
2022-12-03T05:21:29.266Z,6.09
2022-12-03T05:23:58.937Z,5.93
2022-12-03T05:26:26.645Z,5.93
2022-12-03T05:28:54.352Z,6.00
2022-12-03T05:31:22.155Z,6.12
2022-12-03T05:33:49.934Z,6.20
2022-12-03T05:36:17.688Z,6.21
2022-12-03T05:38:45.381Z,6.26
2022-12-03T05:41:32.055Z,6.17
2022-12-03T05:43:59.800Z,6.15
2022-12-03T05:46:27.633Z,6.07
2022-12-03T05:48:55.466Z,5.98
2022-12-03T05:51:23.156Z,5.94
2022-12-03T05:53:50.928Z,6.00
2022-12-03T05:56:20.042Z,6.05
2022-12-03T05:58:47.809Z,5.97
2022-12-03T06:01:15.494Z,5.97
2022-12-03T06:03:43.296Z,5.98
2022-12-03T06:06:11.134Z,5.95
2022-12-03T06:08:38.831Z,6.01
2022-12-03T06:11:06.891Z,5.98
2022-12-03T06:13:36.014Z,5.92
2022-12-03T06:16:03.894Z,5.92
2022-12-03T06:18:31.896Z,6.02
2022-12-03T06:20:59.659Z,6.01
2022-12-03T06:23:27.383Z,5.96
2022-12-03T06:25:55.085Z,6.01
2022-12-03T06:28:22.765Z,6.08
2022-12-03T06:30:51.901Z,5.98
2022-12-03T06:33:19.717Z,6.01
2022-12-03T06:35:47.447Z,6.02
2022-12-03T06:38:15.157Z,6.04
2022-12-03T06:40:42.876Z,6.06
2022-12-03T06:43:10.746Z,5.98
2022-12-03T06:45:42.054Z,5.91
2022-12-03T06:48:13.815Z,5.92
2022-12-03T06:50:41.565Z,5.87
2022-12-03T06:53:09.239Z,5.84
2022-12-03T06:55:36.955Z,5.70
2022-12-03T06:58:04.783Z,5.54
2022-12-03T07:00:32.388Z,5.57
2022-12-03T07:03:00.201Z,5.59
2022-12-03T07:05:29.347Z,5.54
2022-12-03T07:07:57.180Z,5.59
2022-12-03T07:10:24.967Z,5.60
2022-12-03T07:12:52.605Z,5.60
2022-12-03T07:15:20.478Z,5.55
2022-12-03T07:17:48.231Z,5.57
2022-12-03T07:20:16.304Z,5.54
2022-12-03T07:22:45.351Z,5.57
2022-12-03T07:25:19.542Z,5.67
2022-12-03T07:27:50.455Z,5.72
2022-12-03T07:30:18.516Z,5.78
2022-12-03T07:32:46.177Z,5.88
2022-12-03T07:35:14.451Z,5.99
2022-12-03T07:37:42.335Z,5.92
2022-12-03T07:40:12.892Z,5.86
2022-12-03T07:42:40.644Z,5.86
2022-12-03T07:45:09.869Z,5.91
2022-12-03T07:47:37.556Z,5.86
2022-12-03T07:50:05.775Z,5.87
2022-12-03T07:52:33.537Z,5.84
2022-12-03T07:55:01.198Z,5.81
2022-12-03T07:57:30.208Z,5.93
2022-12-03T07:59:57.913Z,6.00
2022-12-03T08:02:25.674Z,6.04
2022-12-03T08:04:53.625Z,6.04
2022-12-03T08:07:21.503Z,6.00
2022-12-03T08:09:49.328Z,5.98
2022-12-03T08:12:20.944Z,6.04
2022-12-03T08:14:50.336Z,6.15
2022-12-03T08:17:19.854Z,6.16
2022-12-03T08:19:48.295Z,6.30
2022-12-03T08:22:17.211Z,6.17
2022-12-03T08:24:45.481Z,6.17
2022-12-03T08:27:19.452Z,6.19
2022-12-03T08:29:47.567Z,6.17
2022-12-03T08:32:16.693Z,6.22
2022-12-03T08:34:45.826Z,6.32
2022-12-03T08:37:17.685Z,6.38
2022-12-03T08:39:46.902Z,6.44
2022-12-03T08:42:37.748Z,6.59
2022-12-03T08:45:40.625Z,6.83
2022-12-03T08:48:34.126Z,6.89
2022-12-03T08:51:06.005Z,6.92
2022-12-03T08:53:36.301Z,6.95
2022-12-03T08:56:07.046Z,6.96
2022-12-03T08:58:39.260Z,7.00
2022-12-03T09:01:30.352Z,7.00
2022-12-03T09:04:15.620Z,7.00
2022-12-03T09:06:43.458Z,6.92
2022-12-03T09:09:11.172Z,6.93
2022-12-03T09:11:38.929Z,6.93
2022-12-03T09:14:07.180Z,7.03
2022-12-03T09:16:34.858Z,7.03
2022-12-03T09:19:04.112Z,7.06
2022-12-03T09:21:31.868Z,7.06
2022-12-03T09:23:59.838Z,7.00
2022-12-03T09:26:28.302Z,6.95
2022-12-03T09:28:56.189Z,6.98
2022-12-03T09:31:23.918Z,6.82
2022-12-03T09:33:51.641Z,6.80
2022-12-03T09:36:20.746Z,6.83
2022-12-03T09:38:48.505Z,6.72
2022-12-03T09:41:16.200Z,6.66
2022-12-03T09:44:03.326Z,6.72
2022-12-03T09:46:32.259Z,6.72
2022-12-03T09:49:00.012Z,6.81
2022-12-03T09:51:34.754Z,6.92
2022-12-03T09:54:03.911Z,6.99
2022-12-03T09:56:31.950Z,7.03
2022-12-03T09:59:00.120Z,7.10
2022-12-03T10:01:30.253Z,7.18
2022-12-03T10:03:59.381Z,7.21
2022-12-03T10:06:27.116Z,7.21
2022-12-03T10:08:56.686Z,7.28
2022-12-03T10:11:26.398Z,7.35
2022-12-03T10:13:56.440Z,7.34
2022-12-03T10:16:24.971Z,7.35
2022-12-03T10:18:54.416Z,7.39
2022-12-03T10:21:26.795Z,7.46
2022-12-03T10:24:20.015Z,7.55
2022-12-03T10:26:49.676Z,7.69
2022-12-03T10:29:39.436Z,7.65
2022-12-03T10:32:10.296Z,7.78
2022-12-03T10:34:39.385Z,7.94
2022-12-03T10:37:12.959Z,8.15
2022-12-03T10:39:58.849Z,8.36
2022-12-03T10:42:27.613Z,8.56
2022-12-03T10:45:15.389Z,8.83
2022-12-03T10:47:43.691Z,8.90
2022-12-03T10:50:18.274Z,8.87
2022-12-03T10:52:46.731Z,8.85
2022-12-03T10:55:15.901Z,8.85
2022-12-03T10:57:45.826Z,9.04
2022-12-03T11:00:19.493Z,9.19
2022-12-03T11:02:53.370Z,9.30
2022-12-03T11:05:27.773Z,9.33
2022-12-03T11:07:55.738Z,9.30
2022-12-03T11:10:23.634Z,9.29
2022-12-03T11:13:29.492Z,9.27
2022-12-03T11:15:59.600Z,9.12
2022-12-03T11:19:02.255Z,9.13
2022-12-03T11:21:32.927Z,9.27
2022-12-03T11:24:22.783Z,9.48
2022-12-03T11:27:18.815Z,9.49
2022-12-03T11:30:01.939Z,9.44
2022-12-03T11:33:07.258Z,9.39
2022-12-03T11:36:15.599Z,9.28
2022-12-03T11:38:53.228Z,9.06
2022-12-03T11:41:23.819Z,8.81
2022-12-03T11:44:19.699Z,8.50
2022-12-03T11:46:48.530Z,8.33
2022-12-03T11:49:36.261Z,8.22
2022-12-03T11:52:20.901Z,8.19
2022-12-03T11:54:52.984Z,8.19
2022-12-03T11:57:30.822Z,8.18
2022-12-03T12:00:09.168Z,8.07
2022-12-03T12:02:36.996Z,7.94
2022-12-03T12:05:19.576Z,8.01
2022-12-03T12:07:49.232Z,7.96
2022-12-03T12:10:42.341Z,7.87
2022-12-03T12:13:42.463Z,7.84
2022-12-03T12:16:10.536Z,7.87
2022-12-03T12:18:40.389Z,7.90
2022-12-03T12:21:44.351Z,7.91
2022-12-03T12:24:43.050Z,8.00
2022-12-03T12:27:13.220Z,7.94
2022-12-03T12:29:42.882Z,7.98
2022-12-03T12:32:16.173Z,7.87
2022-12-03T12:34:46.265Z,7.91
2022-12-03T12:37:23.805Z,8.01
2022-12-03T12:39:57.165Z,7.98
2022-12-03T12:42:33.867Z,7.92
2022-12-03T12:45:13.125Z,7.94
2022-12-03T12:47:49.778Z,7.98
2022-12-03T12:50:19.688Z,7.98
2022-12-03T12:52:53.607Z,8.02
2022-12-03T12:55:24.233Z,8.02
2022-12-03T12:57:52.601Z,8.01
2022-12-03T13:00:22.509Z,7.98
2022-12-03T13:02:55.560Z,7.97
2022-12-03T13:05:27.603Z,7.86
2022-12-03T13:07:55.916Z,7.76
2022-12-03T13:10:43.361Z,7.75
2022-12-03T13:13:26.044Z,7.70
2022-12-03T13:16:02.468Z,7.70
2022-12-03T13:18:41.581Z,7.66
2022-12-03T13:21:23.368Z,7.63
2022-12-03T13:23:53.446Z,7.61
2022-12-03T13:29:16.369Z,7.58
2022-12-03T13:31:50.029Z,7.57
2022-12-03T13:34:21.728Z,7.43
2022-12-03T13:36:56.991Z,7.45
2022-12-03T13:39:30.779Z,7.46
2022-12-03T13:42:24.351Z,7.39
2022-12-03T13:44:54.282Z,7.38
2022-12-03T13:47:23.848Z,7.39
2022-12-03T13:49:54.467Z,7.42
2022-12-03T13:52:24.830Z,7.38
2022-12-03T13:54:54.895Z,7.38
2022-12-03T13:57:24.402Z,7.35
2022-12-03T13:59:52.542Z,7.35
2022-12-03T14:02:20.630Z,7.37
2022-12-03T14:04:48.428Z,7.42
2022-12-03T14:07:16.118Z,7.46
2022-12-03T14:09:43.916Z,7.47
2022-12-03T14:12:26.937Z,7.47
2022-12-03T14:14:56.044Z,7.49
2022-12-03T14:17:23.751Z,7.49
2022-12-03T14:19:51.498Z,7.45
2022-12-03T14:22:23.148Z,7.47
2022-12-03T14:24:51.053Z,7.35
2022-12-03T14:27:18.906Z,7.30
2022-12-03T14:29:46.691Z,7.17
2022-12-03T14:32:15.923Z,7.09
2022-12-03T14:34:43.886Z,7.02
2022-12-03T14:37:11.547Z,7.08
2022-12-03T14:39:39.507Z,7.03
2022-12-03T14:42:17.012Z,6.97
2022-12-03T14:44:46.586Z,6.99
2022-12-03T14:47:17.360Z,7.10
2022-12-03T14:49:45.378Z,7.12
2022-12-03T14:52:13.150Z,7.01
2022-12-03T14:54:42.340Z,6.96
2022-12-03T14:57:11.579Z,6.93
2022-12-03T14:59:39.313Z,6.96
2022-12-03T15:02:07.558Z,7.05
2022-12-03T15:04:36.654Z,7.14
2022-12-03T15:07:04.580Z,7.18
2022-12-03T15:09:32.505Z,7.24
2022-12-03T15:12:00.667Z,7.15
2022-12-03T15:14:28.812Z,7.12
2022-12-03T15:16:56.873Z,7.20
2022-12-03T15:19:24.624Z,7.09
2022-12-03T15:21:53.706Z,7.03
2022-12-03T15:24:21.572Z,6.99
2022-12-03T15:26:49.485Z,7.05
2022-12-03T15:29:17.227Z,7.09
2022-12-03T15:31:44.989Z,7.04
2022-12-03T15:34:16.100Z,6.99
2022-12-03T15:36:46.508Z,6.98
2022-12-03T15:39:15.589Z,7.02
2022-12-03T15:41:43.250Z,7.07
2022-12-03T15:44:10.979Z,7.17
2022-12-03T15:46:38.897Z,7.20
2022-12-03T15:49:06.657Z,7.21
2022-12-03T15:51:34.588Z,7.18
2022-12-03T15:54:03.992Z,7.18
2022-12-03T15:56:37.355Z,7.19
2022-12-03T15:59:05.116Z,7.15
2022-12-03T16:01:32.951Z,7.16
2022-12-03T16:04:00.915Z,7.14
2022-12-03T16:06:28.567Z,7.11
2022-12-03T16:08:56.257Z,7.14
2022-12-03T16:11:23.976Z,7.09
2022-12-03T16:13:53.058Z,7.20
2022-12-03T16:16:20.915Z,7.16
2022-12-03T16:18:48.671Z,7.13
2022-12-03T16:21:16.388Z,7.04
2022-12-03T16:23:44.142Z,6.97
2022-12-03T16:26:11.898Z,6.97
2022-12-03T16:28:39.740Z,6.95
2022-12-03T16:31:08.891Z,7.02
2022-12-03T16:33:36.627Z,7.09
2022-12-03T16:36:04.802Z,7.08
2022-12-03T16:38:33.603Z,7.10
2022-12-03T16:41:01.471Z,7.14
2022-12-03T16:43:29.280Z,7.16
2022-12-03T16:46:20.167Z,7.14
2022-12-03T16:48:49.651Z,7.06
2022-12-03T16:51:19.237Z,7.07
2022-12-03T16:53:47.257Z,6.99
2022-12-03T16:56:15.507Z,7.07
2022-12-03T16:58:43.694Z,7.04
2022-12-03T17:01:12.023Z,7.03
2022-12-03T17:03:39.887Z,7.02
2022-12-03T17:06:09.159Z,7.01
2022-12-03T17:08:36.855Z,7.03
2022-12-03T17:11:04.735Z,6.95
2022-12-03T17:13:32.505Z,6.87
2022-12-03T17:16:00.834Z,6.79
2022-12-03T17:18:28.836Z,6.75
2022-12-03T17:21:06.581Z,6.68
2022-12-03T17:23:35.649Z,6.74
2022-12-03T17:26:03.424Z,6.74
2022-12-03T17:28:31.339Z,6.78
2022-12-03T17:30:59.285Z,6.84
2022-12-03T17:33:27.066Z,6.86
2022-12-03T17:35:54.867Z,6.84
2022-12-03T17:38:22.634Z,6.86
2022-12-03T17:40:51.766Z,6.82
2022-12-03T17:43:19.451Z,6.81
2022-12-03T17:45:47.131Z,6.80
2022-12-03T17:48:15.675Z,6.88
2022-12-03T17:50:43.645Z,6.98
2022-12-03T17:53:11.394Z,6.98
2022-12-03T17:55:44.728Z,7.01
2022-12-03T17:58:14.790Z,7.04
2022-12-03T18:00:44.708Z,7.05
2022-12-03T18:03:12.508Z,7.04
2022-12-03T18:05:40.364Z,7.06
2022-12-03T18:08:08.278Z,7.11
2022-12-03T18:10:36.305Z,7.09
2022-12-03T18:13:04.192Z,7.12
2022-12-03T18:15:33.698Z,7.14
2022-12-03T18:18:01.423Z,7.11
2022-12-03T18:20:29.323Z,7.13
2022-12-03T18:22:58.624Z,7.06
2022-12-03T18:25:26.531Z,7.07
2022-12-03T18:27:54.230Z,6.98
2022-12-03T18:30:22.317Z,6.91
2022-12-03T18:32:51.436Z,6.86
2022-12-03T18:35:19.987Z,6.84
2022-12-03T18:37:47.906Z,6.86
2022-12-03T18:40:20.001Z,6.90
2022-12-03T18:42:47.897Z,6.89
2022-12-03T18:45:16.351Z,6.92
2022-12-03T18:47:44.554Z,6.97
2022-12-03T18:50:14.734Z,7.03
2022-12-03T18:52:42.593Z,7.01
2022-12-03T18:55:16.078Z,7.01
2022-12-03T18:57:43.816Z,6.95
2022-12-03T19:00:13.924Z,6.95
2022-12-03T19:05:32.353Z,6.77
2022-12-03T19:08:00.344Z,6.86
2022-12-03T19:10:28.518Z,6.88
2022-12-03T19:12:56.295Z,6.84
2022-12-03T19:15:24.198Z,6.93
2022-12-03T19:17:52.585Z,6.91
2022-12-03T19:20:20.658Z,6.95
2022-12-03T19:22:49.737Z,6.91
2022-12-03T19:25:17.503Z,6.91
2022-12-03T19:27:45.233Z,6.94
2022-12-03T19:30:13.868Z,6.86
2022-12-03T19:32:41.520Z,6.78
2022-12-03T19:35:11.241Z,6.76
2022-12-03T19:37:39.224Z,6.80
2022-12-03T19:40:11.152Z,6.86
2022-12-03T19:42:38.857Z,6.83
2022-12-03T19:45:07.870Z,6.84
2022-12-03T19:47:35.970Z,6.82
2022-12-03T19:50:03.755Z,6.83
2022-12-03T19:52:31.852Z,6.88
2022-12-03T19:54:59.616Z,6.85
2022-12-03T19:57:29.184Z,6.90
2022-12-03T19:59:57.382Z,6.96
2022-12-03T20:02:25.544Z,6.94
2022-12-03T20:04:56.390Z,6.93
2022-12-03T20:07:24.103Z,6.91
2022-12-03T20:09:52.732Z,6.88
2022-12-03T20:12:20.596Z,6.92
2022-12-03T20:14:50.155Z,7.01
2022-12-03T20:17:17.870Z,7.08
2022-12-03T20:19:45.561Z,7.01
2022-12-03T20:22:13.250Z,7.00
2022-12-03T20:24:41.020Z,7.01
2022-12-03T20:27:08.752Z,7.10
2022-12-03T20:29:36.522Z,7.10
2022-12-03T20:32:06.997Z,7.11
2022-12-03T20:34:35.938Z,7.07
2022-12-03T20:37:04.280Z,7.01
2022-12-03T20:39:31.966Z,7.00
2022-12-03T20:41:59.606Z,7.04
2022-12-03T20:44:27.307Z,6.98
2022-12-03T20:46:55.153Z,6.91
2022-12-03T20:49:24.238Z,6.91
2022-12-03T20:51:51.931Z,6.97
2022-12-03T20:54:19.593Z,6.96
2022-12-03T20:56:47.393Z,6.92
2022-12-03T20:59:17.758Z,6.99
2022-12-03T21:01:47.072Z,6.98
2022-12-03T21:04:16.164Z,6.90
2022-12-03T21:06:46.230Z,6.92
2022-12-03T21:09:13.992Z,6.97
2022-12-03T21:11:42.536Z,7.03
2022-12-03T21:14:11.938Z,6.99
2022-12-03T21:19:29.849Z,6.82
2022-12-03T21:21:58.945Z,6.80
2022-12-03T21:24:26.609Z,6.82
2022-12-03T21:26:57.829Z,6.83
2022-12-03T21:29:25.914Z,6.90
2022-12-03T21:31:53.655Z,6.88
2022-12-03T21:34:21.451Z,6.93
2022-12-03T21:36:49.092Z,6.91
2022-12-03T21:39:18.713Z,6.88
2022-12-03T21:42:34.133Z,6.98
2022-12-03T21:44:34.973Z,6.95
2022-12-03T21:47:10.159Z,6.83
2022-12-03T21:49:41.938Z,6.80
2022-12-03T21:52:09.791Z,6.91
2022-12-03T21:54:38.896Z,6.94
2022-12-03T21:57:06.598Z,6.88
2022-12-03T21:59:34.554Z,6.94
2022-12-03T22:02:02.334Z,6.92
2022-12-03T22:04:30.156Z,6.95
2022-12-03T22:06:58.126Z,6.97
2022-12-03T22:09:26.846Z,7.07
2022-12-03T22:11:59.173Z,7.07
2022-12-03T22:14:27.511Z,7.01
2022-12-03T22:16:55.269Z,7.00
2022-12-03T22:19:23.783Z,6.92
2022-12-03T22:21:51.586Z,6.95
2022-12-03T22:24:19.665Z,6.95
2022-12-03T22:26:47.425Z,6.96
2022-12-03T22:29:16.827Z,6.95
2022-12-03T22:31:44.585Z,6.92
2022-12-03T22:34:12.456Z,6.92
2022-12-03T22:36:40.207Z,6.86
2022-12-03T22:39:07.941Z,6.88
2022-12-03T22:41:35.663Z,6.86
2022-12-03T22:44:03.361Z,6.92
2022-12-03T22:46:32.519Z,6.93
2022-12-03T22:49:06.521Z,6.93
2022-12-03T22:51:34.988Z,6.90
2022-12-03T22:54:03.031Z,6.80
2022-12-03T22:56:31.393Z,6.75
2022-12-03T22:59:00.356Z,6.74
2022-12-03T23:01:30.270Z,6.70
2022-12-03T23:03:59.770Z,6.74
2022-12-03T23:06:28.338Z,6.75
2022-12-03T23:08:57.259Z,6.75
2022-12-03T23:11:25.590Z,6.80
2022-12-03T23:13:53.977Z,6.75
2022-12-03T23:16:26.135Z,6.74
2022-12-03T23:18:54.201Z,6.74
2022-12-03T23:21:29.482Z,6.77
2022-12-03T23:23:57.945Z,6.81
2022-12-03T23:26:25.688Z,6.74
2022-12-03T23:28:53.417Z,6.84
2022-12-03T23:31:23.316Z,6.82
2022-12-03T23:33:52.039Z,6.82
2022-12-03T23:36:21.474Z,6.82
2022-12-03T23:38:50.916Z,6.78
2022-12-03T23:41:21.120Z,6.74
2022-12-03T23:43:48.995Z,6.67
2022-12-03T23:46:18.632Z,6.72
2022-12-03T23:48:46.894Z,6.78
2022-12-03T23:51:16.284Z,6.74
2022-12-03T23:53:44.903Z,6.66
2022-12-03T23:56:16.812Z,6.70
2022-12-03T23:58:45.124Z,6.63
